Time;durP1;ratioP1;P1;durP2;ratioP2;P2;SDS_P1;SDS_P2;PMS_P1;PMS_P2;Temp;Humidity;BMP_temperature;BMP_pressure;BME280_temperature;BME280_humidity;BME280_pressure;Samples;Min_cycle;Max_cycle;Signal;HPM_P1;HPM_P2
2023/07/08 00:00:13;;;;;;;9.80;4.97;;;589.10;2124.80;;;;;;5082466;28;20551;-73
2023/07/08 00:02:41;;;;;;;8.90;4.32;;;589.00;2124.80;;;;;;5086989;28;20031;-72
2023/07/08 00:05:11;;;;;;;9.50;5.22;;;589.00;2124.80;;;;;;5084853;28;20130;-72
2023/07/08 00:07:38;;;;;;;8.68;4.55;;;589.00;2124.80;;;;;;5085711;28;20025;-73
2023/07/08 00:10:30;;;;;;;8.98;4.40;;;589.00;2124.80;;;;;;5080193;28;20025;-72
2023/07/08 00:12:58;;;;;;;7.95;4.00;;;588.90;2176.00;;;;;;5078076;28;20474;-73
2023/07/08 00:15:29;;;;;;;10.63;4.43;;;588.80;2176.00;;;;;;5079277;28;20024;-72
2023/07/08 00:17:55;;;;;;;8.73;4.97;;;588.80;2201.60;;;;;;5078992;28;20493;-73
2023/07/08 00:20:34;;;;;;;7.55;4.65;;;588.80;2227.20;;;;;;5081804;28;20029;-73
2023/07/08 00:23:01;;;;;;;9.95;5.25;;;564.10;2252.80;;;;;;5076533;28;20024;-72
2023/07/08 00:25:27;;;;;;;10.50;5.18;;;564.10;2278.40;;;;;;5090488;28;20043;-73
2023/07/08 00:27:53;;;;;;;7.95;4.95;;;564.10;2304.00;;;;;;5083660;28;20025;-72
2023/07/08 00:30:23;;;;;;;8.32;4.80;;;564.10;2329.60;;;;;;5087025;28;20020;-72
2023/07/08 00:32:55;;;;;;;8.25;5.05;;;564.10;2329.60;;;;;;5079018;28;20082;-73
2023/07/08 00:35:25;;;;;;;10.45;5.05;;;564.00;2380.80;;;;;;5079841;28;20085;-71
2023/07/08 00:38:00;;;;;;;9.02;4.85;;;563.90;2380.80;;;;;;5080856;28;20060;-72
2023/07/08 00:40:27;;;;;;;;;;;564.00;2355.20;;;;;;5080666;28;20027;-73
2023/07/08 00:42:53;;;;;;;9.63;5.22;;;563.90;2380.80;;;;;;5082092;28;19911;-72
2023/07/08 00:45:41;;;;;;;12.25;5.50;;;563.90;2406.40;;;;;;5069028;28;20432;-71
2023/07/08 00:48:23;;;;;;;10.05;5.63;;;563.90;2406.40;;;;;;5081657;28;20021;-72
2023/07/08 00:50:50;;;;;;;8.65;4.22;;;563.90;2432.00;;;;;;5074933;28;20104;-73
2023/07/08 00:53:23;;;;;;;12.48;5.20;;;563.90;2432.00;;;;;;5086051;28;20020;-71
2023/07/08 00:55:50;;;;;;;8.57;5.22;;;563.90;2406.40;;;;;;5085533;28;20041;-73
2023/07/08 00:58:20;;;;;;;7.32;4.95;;;563.80;2432.00;;;;;;5084305;28;20040;-72
2023/07/08 01:00:46;;;;;;;9.45;5.13;;;563.80;2432.00;;;;;;5079773;28;20467;-74
2023/07/08 01:03:12;;;;;;;11.20;4.90;;;563.90;2432.00;;;;;;5087736;28;20036;-71
2023/07/08 01:05:38;;;;;;;7.63;4.68;;;563.90;2406.40;;;;;;5080521;28;20121;-74
2023/07/08 01:08:06;;;;;;;9.80;4.85;;;;;;;;;;5080735;28;20032;-73
2023/07/08 01:11:04;;;;;;;14.00;5.18;;;563.60;2432.00;;;;;;5079056;28;20045;-71
2023/07/08 01:13:39;;;;;;;10.68;5.38;;;563.40;2432.00;;;;;;5085034;28;20092;-73
2023/07/08 01:16:06;;;;;;;9.23;5.40;;;563.30;2432.00;;;;;;5084459;28;20052;-73
2023/07/08 01:18:33;;;;;;;10.93;5.70;;;563.20;2432.00;;;;;;5078962;28;20099;-73
2023/07/08 01:21:26;;;;;;;7.72;5.30;;;563.30;2432.00;;;;;;5078025;28;20444;-74
2023/07/08 01:23:51;;;;;;;11.32;5.28;;;563.20;2432.00;;;;;;5059600;28;20082;-72
2023/07/08 01:26:17;;;;;;;10.32;5.40;;;538.50;2406.40;;;;;;5082745;28;20028;-72
2023/07/08 01:28:43;;;;;;;10.20;5.43;;;563.20;2432.00;;;;;;5079220;28;20043;-73
2023/07/08 01:31:09;;;;;;;11.98;5.90;;;563.30;2432.00;;;;;;5077362;28;20024;-72
2023/07/08 01:33:35;;;;;;;11.95;5.63;;;563.20;2432.00;;;;;;5083680;28;20028;-72
2023/07/08 01:36:00;;;;;;;12.15;5.85;;;563.30;2432.00;;;;;;5085337;28;20025;-72
2023/07/08 01:38:27;;;;;;;9.68;5.32;;;563.40;2432.00;;;;;;5083828;28;20039;-72
2023/07/08 01:40:56;;;;;;;8.55;5.30;;;563.40;2432.00;;;;;;5080794;28;20029;-72
2023/07/08 01:43:22;;;;;;;10.15;5.20;;;563.40;2432.00;;;;;;5084373;28;20038;-72
2023/07/08 01:45:49;;;;;;;7.75;4.80;;;563.40;2432.00;;;;;;5082466;28;20025;-74
2023/07/08 01:48:18;;;;;;;8.00;5.50;;;563.60;2432.00;;;;;;5083602;28;20028;-72
2023/07/08 01:50:57;;;;;;;9.98;5.03;;;563.50;2432.00;;;;;;5072626;28;20020;-71
2023/07/08 01:53:35;;;;;;;10.00;5.28;;;563.50;2432.00;;;;;;5084370;28;20028;-72
2023/07/08 01:56:00;;;;;;;11.07;5.03;;;563.40;2432.00;;;;;;5070968;28;20044;-74
2023/07/08 01:58:27;;;;;;;7.38;5.13;;;563.20;2432.00;;;;;;5078927;28;20033;-72
2023/07/08 02:00:54;;;;;;;7.45;4.85;;;538.50;2406.40;;;;;;5083126;28;20137;-74
2023/07/08 02:03:20;;;;;;;8.18;5.47;;;563.20;2432.00;;;;;;5084082;28;20020;-71
2023/07/08 02:05:45;;;;;;;11.20;5.40;;;538.50;2406.40;;;;;;5079678;28;20024;-72
2023/07/08 02:08:11;;;;;;;12.75;5.60;;;538.20;2406.40;;;;;;5082812;28;20024;-72
2023/07/08 02:10:39;;;;;;;14.77;5.93;;;538.00;2406.40;;;;;;5077647;28;20020;-71
2023/07/08 02:13:04;;;;;;;10.30;5.13;;;538.00;2406.40;;;;;;5078977;28;20032;-72
2023/07/08 02:15:30;;;;;;;14.90;5.88;;;538.20;2406.40;;;;;;5076988;28;20020;-72
2023/07/08 02:17:56;;;;;;;9.73;6.38;;;538.20;2406.40;;;;;;5079864;28;20110;-73
2023/07/08 02:20:22;;;;;;;8.35;5.25;;;538.30;2406.40;;;;;;5077444;28;20025;-73
2023/07/08 02:22:48;;;;;;;10.35;5.50;;;538.20;2406.40;;;;;;5076241;28;20175;-73
2023/07/08 02:25:14;;;;;;;8.43;6.18;;;538.20;2406.40;;;;;;5076661;28;20032;-71
2023/07/08 02:27:40;;;;;;;9.20;5.43;;;538.00;2406.40;;;;;;5080990;28;20021;-72
2023/07/08 02:30:06;;;;;;;8.13;5.50;;;538.00;2406.40;;;;;;5084300;28;20052;-72
2023/07/08 02:32:35;;;;;;;11.13;5.32;;;538.00;2406.40;;;;;;5077177;28;20016;-72
2023/07/08 02:35:03;;;;;;;10.57;5.75;;;538.00;2406.40;;;;;;5080420;28;20178;-72
2023/07/08 02:37:29;;;;;;;12.52;6.47;;;538.00;2406.40;;;;;;5078880;28;20073;-73
2023/07/08 02:39:55;;;;;;;9.23;5.60;;;538.00;2406.40;;;;;;5082239;28;20017;-72
2023/07/08 02:42:21;;;;;;;13.18;5.82;;;538.00;2406.40;;;;;;5080574;28;20051;-72
2023/07/08 02:44:47;;;;;;;8.20;5.18;;;538.00;2406.40;;;;;;5082846;28;20035;-71
2023/07/08 02:47:13;;;;;;;11.00;5.30;;;538.00;2406.40;;;;;;5076013;28;20063;-72
2023/07/08 02:49:38;;;;;;;8.75;5.97;;;538.00;2406.40;;;;;;5077504;28;20036;-72
2023/07/08 02:52:04;;;;;;;11.43;5.55;;;538.00;2406.40;;;;;;5073667;28;20024;-72
2023/07/08 02:54:30;;;;;;;9.73;6.05;;;538.00;2406.40;;;;;;5073433;28;20035;-73
2023/07/08 02:56:56;;;;;;;12.55;6.35;;;538.00;2406.40;;;;;;5072938;28;20045;-73
2023/07/08 02:59:21;;;;;;;11.85;5.70;;;537.90;2406.40;;;;;;5073269;28;20139;-72
2023/07/08 03:01:47;;;;;;;11.27;5.97;;;538.00;2406.40;;;;;;5073197;28;20086;-75
2023/07/08 03:04:13;;;;;;;10.55;5.95;;;538.10;2406.40;;;;;;5073123;28;20024;-72
2023/07/08 03:06:43;;;;;;;10.63;6.03;;;538.00;2406.40;;;;;;5073177;28;20028;-73
2023/07/08 03:09:11;;;;;;;12.75;6.22;;;537.90;2406.40;;;;;;5072386;28;20059;-73
2023/07/08 03:11:38;;;;;;;16.35;5.82;;;537.80;2406.40;;;;;;5073022;28;20626;-73
2023/07/08 03:14:05;;;;;;;10.05;6.03;;;537.90;2406.40;;;;;;5073172;28;20035;-73
2023/07/08 03:16:30;;;;;;;13.90;5.43;;;538.00;2406.40;;;;;;5073182;28;20021;-73
2023/07/08 03:18:57;;;;;;;13.32;5.88;;;537.90;2406.40;;;;;;5072878;28;20036;-73
2023/07/08 03:21:22;;;;;;;11.90;5.88;;;537.80;2406.40;;;;;;5072904;28;20024;-72
2023/07/08 03:23:49;;;;;;;12.93;5.75;;;538.00;2406.40;;;;;;5073080;28;20031;-76
2023/07/08 03:26:18;;;;;;;12.52;6.18;;;538.10;2406.40;;;;;;5072805;28;20051;-72
2023/07/08 03:28:45;;;;;;;8.75;5.97;;;538.00;2406.40;;;;;;5072719;28;20493;-75
2023/07/08 03:31:10;;;;;;;8.57;5.25;;;538.00;2406.40;;;;;;5072607;28;20025;-72
2023/07/08 03:33:37;;;;;;;14.02;6.15;;;538.20;2406.40;;;;;;5072707;28;20025;-72
2023/07/08 03:36:04;;;;;;;11.77;5.80;;;538.20;2406.40;;;;;;5072737;28;20086;-73
2023/07/08 03:38:30;;;;;;;7.13;4.75;;;538.00;2406.40;;;;;;5072912;28;20033;-74
2023/07/08 03:40:56;;;;;;;9.45;5.30;;;538.00;2406.40;;;;;;5072961;28;20017;-72
2023/07/08 03:43:21;;;;;;;7.40;4.82;;;538.00;2406.40;;;;;;5073060;28;20386;-73
2023/07/08 03:45:47;;;;;;;9.63;5.97;;;537.90;2406.40;;;;;;5072705;28;20032;-73
2023/07/08 03:48:13;;;;;;;11.63;5.30;;;538.00;2406.40;;;;;;5072707;28;20032;-72
2023/07/08 03:50:39;;;;;;;11.02;5.30;;;537.90;2406.40;;;;;;5072710;28;20048;-73
2023/07/08 03:53:05;;;;;;;9.88;5.70;;;537.70;2406.40;;;;;;5072767;28;20513;-75
2023/07/08 03:55:30;;;;;;;9.80;6.45;;;537.80;2406.40;;;;;;5071976;28;20485;-72
2023/07/08 03:57:56;;;;;;;12.90;5.85;;;537.90;2406.40;;;;;;5072413;28;20363;-72
2023/07/08 04:00:22;;;;;;;9.07;5.50;;;537.80;2406.40;;;;;;5072707;28;20036;-76
2023/07/08 04:02:48;;;;;;;13.07;6.13;;;537.90;2406.40;;;;;;5072489;28;20074;-72
2023/07/08 04:05:19;;;;;;;8.70;5.28;;;538.00;2406.40;;;;;;5072471;28;20025;-79
2023/07/08 04:07:45;;;;;;;9.55;5.18;;;538.00;2406.40;;;;;;5072373;28;20046;-72
2023/07/08 04:10:11;;;;;;;11.05;5.97;;;538.00;2406.40;;;;;;5072555;28;20028;-79
2023/07/08 04:12:38;;;;;;;7.63;5.47;;;538.00;2406.40;;;;;;5072253;28;20481;-79
2023/07/08 04:15:04;;;;;;;14.77;5.70;;;538.00;2406.40;;;;;;5072498;28;20029;-72
2023/07/08 04:17:30;;;;;;;13.13;5.47;;;538.10;2406.40;;;;;;5072249;28;20045;-76
2023/07/08 04:20:01;;;;;;;13.95;5.57;;;538.20;2406.40;;;;;;5072816;28;20505;-73
2023/07/08 04:22:26;;;;;;;8.93;5.63;;;538.20;2406.40;;;;;;5063275;28;20481;-72
2023/07/08 04:24:52;;;;;;;8.40;5.75;;;538.20;2406.40;;;;;;5075514;28;20020;-78
2023/07/08 04:27:18;;;;;;;7.90;5.35;;;538.20;2406.40;;;;;;5068985;28;20083;-79
2023/07/08 04:29:44;;;;;;;9.60;5.45;;;538.30;2406.40;;;;;;5069687;28;20052;-72
2023/07/08 04:32:10;;;;;;;17.63;5.38;;;538.30;2406.40;;;;;;5075960;28;20463;-77
2023/07/08 04:34:36;;;;;;;10.10;5.78;;;538.30;2406.40;;;;;;5075422;28;20037;-77
2023/07/08 04:37:04;;;;;;;9.65;5.70;;;538.20;2406.40;;;;;;5078113;28;20027;-76
2023/07/08 04:39:30;;;;;;;13.27;5.75;;;538.30;2406.40;;;;;;5069957;28;20029;-72
2023/07/08 04:41:56;;;;;;;13.98;6.28;;;538.40;2406.40;;;;;;5081023;28;20055;-78
2023/07/08 04:44:22;;;;;;;11.32;5.72;;;538.50;2406.40;;;;;;5075623;28;20060;-72
2023/07/08 04:46:58;;;;;;;9.75;5.30;;;538.50;2406.40;;;;;;5075743;28;20024;-79
2023/07/08 04:49:27;;;;;;;8.75;5.50;;;538.50;2406.40;;;;;;5075505;28;20016;-72
2023/07/08 04:51:53;;;;;;;8.57;5.55;;;538.50;2406.40;;;;;;5075370;28;20478;-79
2023/07/08 04:54:19;;;;;;;8.25;5.82;;;538.50;2406.40;;;;;;5075281;28;20029;-79
2023/07/08 04:56:48;;;;;;;9.25;5.50;;;563.20;2432.00;;;;;;5075381;28;20088;-74
2023/07/08 04:59:17;;;;;;;12.60;5.55;;;538.50;2406.40;;;;;;5075067;28;20044;-72
2023/07/08 05:01:43;;;;;;;12.05;5.55;;;563.40;2432.00;;;;;;5075147;28;20020;-75
2023/07/08 05:04:13;;;;;;;13.32;5.53;;;563.50;2432.00;;;;;;5075181;28;20044;-72
2023/07/08 05:06:40;;;;;;;10.18;5.50;;;563.50;2432.00;;;;;;5075327;28;20070;-73
2023/07/08 05:09:06;;;;;;;7.75;5.35;;;563.40;2432.00;;;;;;5075371;28;20063;-73
2023/07/08 05:11:32;;;;;;;11.73;5.63;;;563.50;2432.00;;;;;;5074810;28;20039;-73
2023/07/08 05:13:58;;;;;;;11.30;5.60;;;563.60;2432.00;;;;;;5075273;28;20028;-73
2023/07/08 05:16:24;;;;;;;9.02;5.57;;;563.50;2432.00;;;;;;5074674;28;20021;-73
2023/07/08 05:18:50;;;;;;;8.68;5.78;;;563.60;2432.00;;;;;;5074965;28;20416;-79
2023/07/08 05:21:17;;;;;;;10.30;5.30;;;563.60;2432.00;;;;;;5074778;28;20021;-72
2023/07/08 05:23:44;;;;;;;11.27;6.18;;;563.60;2432.00;;;;;;5074583;28;20020;-78
2023/07/08 05:26:10;;;;;;;9.18;5.75;;;563.60;2432.00;;;;;;5074715;28;20025;-77
2023/07/08 05:28:36;;;;;;;10.10;5.10;;;563.70;2432.00;;;;;;5073939;28;20104;-73
2023/07/08 05:31:02;;;;;;;8.95;5.70;;;563.80;2432.00;;;;;;5074701;28;20103;-73
2023/07/08 05:33:30;;;;;;;7.90;5.30;;;563.90;2432.00;;;;;;5073862;28;20056;-75
2023/07/08 05:35:56;;;;;;;14.68;5.65;;;563.80;2432.00;;;;;;5074604;28;20015;-73
2023/07/08 05:38:22;;;;;;;8.50;4.75;;;563.90;2432.00;;;;;;5074555;28;20032;-73
2023/07/08 05:40:54;;;;;;;9.77;5.10;;;563.90;2432.00;;;;;;5074476;28;20017;-72
2023/07/08 05:43:20;;;;;;;8.35;5.35;;;564.00;2432.00;;;;;;5073577;28;20501;-71
2023/07/08 05:45:47;;;;;;;10.00;5.35;;;564.00;2432.00;;;;;;5076830;28;20028;-72
2023/07/08 05:48:13;;;;;;;8.32;5.72;;;564.10;2432.00;;;;;;5083475;28;20119;-72
2023/07/08 05:50:39;;;;;;;8.43;5.38;;;564.10;2432.00;;;;;;5074978;28;20474;-73
2023/07/08 05:53:05;;;;;;;10.73;5.50;;;588.80;2432.00;;;;;;5077210;28;20071;-72
2023/07/08 05:55:32;;;;;;;10.90;5.40;;;588.90;2432.00;;;;;;5078941;28;20068;-74
2023/07/08 05:57:58;;;;;;;11.25;5.40;;;589.00;2432.00;;;;;;5080017;28;20036;-73
2023/07/08 06:00:23;;;;;;;7.70;5.43;;;589.00;2432.00;;;;;;5080350;28;20039;-73
2023/07/08 06:02:49;;;;;;;14.30;5.47;;;589.00;2432.00;;;;;;5073913;28;20028;-73
2023/07/08 06:05:15;;;;;;;11.02;6.70;;;589.10;2432.00;;;;;;5080769;28;20179;-73
2023/07/08 06:07:40;;;;;;;8.65;5.55;;;589.20;2432.00;;;;;;5081134;28;20107;-75
2023/07/08 06:10:07;;;;;;;10.88;5.38;;;589.30;2406.40;;;;;;5083549;28;20020;-73
2023/07/08 06:12:33;;;;;;;8.95;5.35;;;589.40;2380.80;;;;;;5083603;28;20029;-75
2023/07/08 06:14:59;;;;;;;7.07;4.40;;;589.50;2406.40;;;;;;5076287;28;20024;-74
2023/07/08 06:17:24;;;;;;;9.70;5.85;;;589.60;2304.00;;;;;;5074374;28;20385;-74
2023/07/08 06:19:50;;;;;;;9.27;6.40;;;589.70;2278.40;;;;;;5082930;28;20048;-76
2023/07/08 06:22:16;;;;;;;11.65;5.78;;;589.70;2252.80;;;;;;5079381;28;20020;-75
2023/07/08 06:24:42;;;;;;;10.32;4.88;;;614.40;2278.40;;;;;;5080242;28;20033;-74
2023/07/08 06:27:07;;;;;;;8.25;5.05;;;614.50;2252.80;;;;;;5085145;28;20107;-73
2023/07/08 06:29:34;;;;;;;8.63;5.38;;;614.60;2252.80;;;;;;5075948;28;20016;-74
2023/07/08 06:32:00;;;;;;;13.20;5.40;;;614.70;2176.00;;;;;;5080390;28;20031;-75
2023/07/08 06:34:26;;;;;;;9.15;5.78;;;614.80;2201.60;;;;;;5079081;28;20487;-74
2023/07/08 06:36:52;;;;;;;10.80;5.85;;;614.80;2176.00;;;;;;5078735;28;20046;-75
2023/07/08 06:39:18;;;;;;;10.35;5.22;;;614.90;2150.40;;;;;;5078381;28;20114;-74
2023/07/08 06:41:44;;;;;;;7.32;5.15;;;615.00;2124.80;;;;;;5075791;28;20029;-73
2023/07/08 06:44:10;;;;;;;8.57;4.97;;;615.10;2022.40;;;;;;5083451;28;20027;-75
2023/07/08 06:46:36;;;;;;;8.13;4.57;;;615.20;2073.60;;;;;;5078470;28;20082;-73
2023/07/08 06:49:02;;;;;;;7.28;5.45;;;615.30;2073.60;;;;;;5080142;28;20474;-75
2023/07/08 06:51:28;;;;;;;9.15;4.65;;;615.30;2073.60;;;;;;5075523;28;20017;-75
2023/07/08 06:53:53;;;;;;;10.60;4.38;;;640.00;2048.00;;;;;;5074159;28;20078;-74
2023/07/08 06:56:19;;;;;;;8.40;4.63;;;640.00;1971.20;;;;;;5077561;28;20079;-74
2023/07/08 06:58:45;;;;;;;7.43;5.25;;;640.20;1971.20;;;;;;5074954;28;20047;-77
2023/07/08 07:01:11;;;;;;;9.45;5.43;;;640.40;1971.20;;;;;;5080407;28;20039;-73
2023/07/08 07:03:38;;;;;;;8.43;4.65;;;640.50;1945.60;;;;;;5078762;28;20017;-75
2023/07/08 07:06:03;;;;;;;6.97;4.50;;;640.60;1920.00;;;;;;5077388;28;20039;-72
2023/07/08 07:08:29;;;;;;;6.40;4.55;;;640.70;1920.00;;;;;;5081791;28;20389;-73
2023/07/08 07:10:55;;;;;;;6.57;4.30;;;640.80;1920.00;;;;;;5083536;28;20071;-74
2023/07/08 07:13:20;;;;;;;10.70;4.32;;;640.90;1817.60;;;;;;5079611;28;20127;-73
2023/07/08 07:15:49;;;;;;;13.73;4.47;;;665.60;1868.80;;;;;;5076739;28;20161;-74
2023/07/08 07:18:15;;;;;;;8.45;4.65;;;665.60;1843.20;;;;;;5077771;28;20214;-73
2023/07/08 07:20:49;;;;;;;5.88;3.38;;;665.90;1843.20;;;;;;5078583;28;20017;-73
2023/07/08 07:23:14;;;;;;;6.85;3.78;;;666.00;1792.00;;;;;;5077213;28;20028;-74
2023/07/08 07:25:40;;;;;;;6.97;3.97;;;666.00;1766.40;;;;;;5073234;28;20078;-74
2023/07/08 07:28:06;;;;;;;10.05;4.20;;;666.20;1740.80;;;;;;5075938;28;20604;-72
2023/07/08 07:30:32;;;;;;;10.05;3.75;;;666.20;1740.80;;;;;;5075705;28;20123;-74
2023/07/08 07:33:01;;;;;;;7.20;3.72;;;666.20;1664.00;;;;;;5080974;28;20095;-75
2023/07/08 07:35:27;;;;;;;5.03;3.30;;;666.30;1689.60;;;;;;5076700;28;20029;-74
2023/07/08 07:37:53;;;;;;;6.45;3.72;;;666.40;1638.40;;;;;;5077049;28;20536;-75
2023/07/08 07:40:18;;;;;;;6.15;3.10;;;666.50;1664.00;;;;;;5078010;28;20438;-74
2023/07/08 07:42:45;;;;;;;6.70;3.30;;;691.30;1612.80;;;;;;5077045;28;20017;-73
2023/07/08 07:45:12;;;;;;;6.65;3.20;;;691.40;1587.20;;;;;;5074698;28;20478;-73
2023/07/08 07:47:38;;;;;;;5.72;2.60;;;691.40;1612.80;;;;;;5076898;28;20020;-73
2023/07/08 07:50:06;;;;;;;7.07;2.78;;;691.40;1612.80;;;;;;5075070;28;20040;-74
2023/07/08 07:52:32;;;;;;;7.15;3.63;;;691.50;1612.80;;;;;;5077822;28;20186;-75
2023/07/08 07:54:58;;;;;;;5.38;3.38;;;691.70;1638.40;;;;;;5084933;28;20117;-73
2023/07/08 07:57:25;;;;;;;4.32;2.83;;;691.80;1561.60;;;;;;5085104;28;20025;-73
2023/07/08 07:59:50;;;;;;;4.32;2.80;;;691.80;1510.40;;;;;;5083445;28;20022;-74
2023/07/08 08:02:17;;;;;;;6.30;3.58;;;691.80;1484.80;;;;;;5080713;28;20434;-74
2023/07/08 08:04:43;;;;;;;9.25;3.72;;;691.80;1510.40;;;;;;5086227;28;20020;-74
2023/07/08 08:07:09;;;;;;;6.55;3.00;;;692.10;1510.40;;;;;;5080123;28;20046;-73
2023/07/08 08:09:36;;;;;;;9.73;3.25;;;692.10;1510.40;;;;;;5089590;28;20032;-74
2023/07/08 08:12:07;;;;;;;6.75;3.42;;;716.80;1510.40;;;;;;5084373;28;20097;-74
2023/07/08 08:14:33;;;;;;;11.52;3.30;;;716.80;1484.80;;;;;;5078162;28;20036;-74
2023/07/08 08:16:58;;;;;;;6.13;3.22;;;716.80;1484.80;;;;;;5080717;28;20028;-75
2023/07/08 08:19:24;;;;;;;4.25;2.95;;;716.90;1484.80;;;;;;5081311;28;20654;-73
2023/07/08 08:21:50;;;;;;;5.10;3.03;;;717.00;1484.80;;;;;;5078077;28;20021;-75
2023/07/08 08:24:15;;;;;;;5.25;3.38;;;717.10;1484.80;;;;;;5078271;28;20057;-74
2023/07/08 08:26:41;;;;;;;7.95;2.85;;;717.00;1484.80;;;;;;5084351;28;20020;-76
2023/07/08 08:29:07;;;;;;;6.82;2.60;;;717.00;1433.60;;;;;;5076887;28;20021;-74
2023/07/08 08:31:32;;;;;;;5.00;3.28;;;717.00;1408.00;;;;;;5080895;28;20470;-73
2023/07/08 08:33:58;;;;;;;6.18;3.28;;;717.00;1382.40;;;;;;5080073;28;20069;-77
2023/07/08 08:36:24;;;;;;;6.45;3.45;;;717.00;1408.00;;;;;;5078073;28;20107;-72
2023/07/08 08:38:50;;;;;;;6.88;3.58;;;717.10;1433.60;;;;;;5082297;28;20067;-76
2023/07/08 08:41:19;;;;;;;7.18;3.00;;;717.10;1433.60;;;;;;5081310;28;20031;-72
2023/07/08 08:43:47;;;;;;;6.05;2.60;;;717.10;1408.00;;;;;;5079237;28;20028;-74
2023/07/08 08:46:21;;;;;;;6.10;3.08;;;717.10;1382.40;;;;;;5075328;28;20540;-73
2023/07/08 08:49:02;;;;;;;7.82;2.50;;;717.10;1382.40;;;;;;5081220;28;20036;-73
2023/07/08 08:51:30;;;;;;;8.65;4.43;;;717.20;1408.00;;;;;;5084582;28;20035;-72
2023/07/08 08:53:57;;;;;;;10.88;4.07;;;717.20;1356.80;;;;;;5084230;28;20025;-73
2023/07/08 08:56:43;;;;;;;7.45;4.38;;;717.20;1382.40;;;;;;5079851;28;20090;-73
2023/07/08 08:59:38;;;;;;;7.18;3.60;;;717.30;1356.80;;;;;;5073381;28;20033;-73
2023/07/08 09:02:35;;;;;;;3.95;2.45;;;717.40;1382.40;;;;;;5078938;28;20386;-74
2023/07/08 09:05:07;;;;;;;6.80;3.40;;;717.40;1356.80;;;;;;5084905;28;20020;-73
2023/07/08 09:08:02;;;;;;;5.28;2.60;;;717.30;1331.20;;;;;;5078860;28;20020;-73
2023/07/08 09:10:56;;;;;;;5.90;3.05;;;717.40;1382.40;;;;;;5077445;28;20043;-73
2023/07/08 09:13:31;;;;;;;4.20;2.72;;;717.60;1382.40;;;;;;5080529;28;20020;-72
2023/07/08 09:16:25;;;;;;;4.75;3.03;;;717.70;1382.40;;;;;;5077090;28;20024;-73
2023/07/08 09:19:13;;;;;;;8.30;3.72;;;717.70;1356.80;;;;;;5071124;28;20711;-75
2023/07/08 09:22:01;;;;;;;6.93;3.17;;;742.40;1382.40;;;;;;5081333;28;20017;-74
2023/07/08 09:24:32;;;;;;;8.60;4.15;;;717.70;1356.80;;;;;;5077007;28;20055;-76
2023/07/08 09:27:01;;;;;;;4.72;2.90;;;742.40;1356.80;;;;;;5078388;28;20078;-78
2023/07/08 09:29:27;;;;;;;7.28;3.45;;;742.50;1382.40;;;;;;5080473;28;20024;-75
2023/07/08 09:31:53;;;;;;;5.70;3.30;;;742.50;1356.80;;;;;;5081057;28;20092;-74
2023/07/08 09:34:22;;;;;;;6.78;3.10;;;742.60;1356.80;;;;;;5078290;28;20024;-73
2023/07/08 09:36:50;;;;;;;5.40;3.35;;;742.80;1356.80;;;;;;5075312;28;20024;-75
2023/07/08 09:39:18;;;;;;;5.65;2.90;;;742.80;1331.20;;;;;;5082205;28;20047;-74
2023/07/08 09:41:47;;;;;;;6.60;2.70;;;742.90;1331.20;;;;;;5086152;28;20030;-74
2023/07/08 09:44:18;;;;;;;6.65;3.20;;;743.00;1331.20;;;;;;5080987;28;20515;-76
2023/07/08 09:46:44;;;;;;;6.90;2.92;;;743.10;1305.60;;;;;;5068139;28;20029;-74
2023/07/08 09:49:27;;;;;;;4.78;2.90;;;743.10;1280.00;;;;;;5076144;28;20560;-74
2023/07/08 09:51:53;;;;;;;7.15;3.20;;;743.10;1254.40;;;;;;5080001;28;20013;-74
2023/07/08 09:54:24;;;;;;;7.13;3.38;;;743.20;1254.40;;;;;;5081493;28;20558;-74
2023/07/08 09:57:04;;;;;;;6.38;3.90;;;768.00;1254.40;;;;;;5085678;28;20062;-73
2023/07/08 09:59:34;;;;;;;6.88;3.95;;;768.10;1254.40;;;;;;5081126;28;20033;-74
2023/07/08 10:02:03;;;;;;;11.20;5.07;;;768.10;1254.40;;;;;;5081885;28;20024;-75
2023/07/08 10:04:29;;;;;;;6.70;2.95;;;768.40;1228.80;;;;;;5087438;28;20023;-74
2023/07/08 10:06:55;;;;;;;6.70;3.83;;;768.60;1228.80;;;;;;5079255;28;20091;-73
2023/07/08 10:09:24;;;;;;;17.67;12.60;;;768.60;1203.20;;;;;;5078814;28;20032;-76
2023/07/08 10:12:02;;;;;;;7.85;5.28;;;768.80;1254.40;;;;;;5083754;28;20024;-73
2023/07/08 10:14:38;;;;;;;11.93;6.22;;;793.70;1228.80;;;;;;5064908;28;20028;-75
2023/07/08 10:17:05;;;;;;;7.75;5.25;;;793.70;1203.20;;;;;;5076217;28;20025;-74
2023/07/08 10:19:31;;;;;;;8.15;4.20;;;793.80;1203.20;;;;;;5079679;28;20025;-74
2023/07/08 10:22:25;;;;;;;8.20;3.50;;;794.10;1203.20;;;;;;5078296;28;20414;-74
2023/07/08 10:25:29;;;;;;;10.07;3.45;;;794.00;1177.60;;;;;;5077773;28;20035;-74
2023/07/08 10:28:24;;;;;;;10.48;3.00;;;794.10;1152.00;;;;;;5077982;28;20456;-75
2023/07/08 10:31:04;;;;;;;10.95;2.90;;;793.90;1152.00;;;;;;5082426;28;20020;-77
2023/07/08 10:33:50;;;;;;;7.00;3.13;;;794.00;1152.00;;;;;;5079617;28;20020;-73
2023/07/08 10:36:42;;;;;;;5.50;2.58;;;794.10;1152.00;;;;;;5082687;28;20024;-73
2023/07/08 10:39:14;;;;;;;5.68;2.72;;;794.20;1152.00;;;;;;5070411;28;20075;-74
2023/07/08 10:42:24;;;;;;;5.30;3.22;;;794.20;1152.00;;;;;;5078662;28;20008;-74
2023/07/08 10:45:23;;;;;;;3.38;2.50;;;794.30;1100.80;;;;;;5038937;28;20178;-75
2023/07/08 10:47:58;;;;;;;6.60;2.83;;;794.50;1126.40;;;;;;5036983;28;20037;-72
2023/07/08 10:50:42;;;;;;;5.57;2.80;;;794.50;1126.40;;;;;;5044499;28;20024;-74
2023/07/08 10:53:44;;;;;;;6.45;2.70;;;794.40;1100.80;;;;;;5040529;28;20025;-73
2023/07/08 10:56:36;;;;;;;6.57;2.60;;;794.40;1100.80;;;;;;5040375;28;20050;-74
2023/07/08 10:59:52;;;;;;;5.20;2.92;;;794.50;1100.80;;;;;;5041297;28;20045;-73
2023/07/08 11:02:45;;;;;;;7.30;2.70;;;819.30;1075.20;;;;;;5009670;28;20071;-74
2023/07/08 11:05:31;;;;;;;6.78;2.95;;;819.30;1075.20;;;;;;5016525;28;20104;-73
2023/07/08 11:08:24;;;;;;;7.68;3.15;;;819.60;1100.80;;;;;;5014321;28;20033;-73
2023/07/08 11:11:08;;;;;;;4.57;2.90;;;819.50;1100.80;;;;;;5007494;28;20026;-73
2023/07/08 11:13:41;;;;;;;6.03;3.58;;;819.60;1049.60;;;;;;5006581;28;20037;-73
2023/07/08 11:16:28;;;;;;;8.70;2.85;;;819.80;1075.20;;;;;;5020167;28;20029;-73
2023/07/08 11:19:21;;;;;;;5.13;2.85;;;819.80;1075.20;;;;;;5016059;28;20213;-73
2023/07/08 11:21:54;;;;;;;8.27;2.63;;;819.60;1075.20;;;;;;5037851;28;20521;-73
2023/07/08 11:24:32;;;;;;;5.60;2.72;;;819.90;1075.20;;;;;;5043810;28;20468;-73
2023/07/08 11:27:36;;;;;;;4.65;2.58;;;819.80;1075.20;;;;;;5036802;28;20483;-72
2023/07/08 11:30:10;;;;;;;8.32;3.20;;;819.80;1024.00;;;;;;4952749;28;20231;-76
2023/07/08 11:32:37;;;;;;;5.15;3.35;;;820.00;1049.60;;;;;;4954173;29;20062;-71
2023/07/08 11:35:07;;;;;;;5.47;2.40;;;819.90;1024.00;;;;;;4955967;29;20155;-77
2023/07/08 11:37:34;;;;;;;5.28;2.78;;;820.00;998.40;;;;;;4958239;28;20104;-73
2023/07/08 11:40:29;;;;;;;6.90;2.88;;;819.80;1024.00;;;;;;4974258;28;20027;-72
2023/07/08 11:43:02;;;;;;;4.90;2.55;;;820.10;1024.00;;;;;;4972044;28;20031;-74
2023/07/08 11:45:31;;;;;;;5.65;3.05;;;844.90;1024.00;;;;;;4973599;28;20035;-73
2023/07/08 11:48:25;;;;;;;7.03;3.20;;;844.90;1024.00;;;;;;4974566;28;20069;-73
2023/07/08 11:50:52;;;;;;;7.07;2.97;;;844.90;1075.20;;;;;;4974765;28;20117;-76
2023/07/08 11:53:29;;;;;;;5.40;3.35;;;844.90;1024.00;;;;;;4974016;28;20081;-72
2023/07/08 11:56:04;;;;;;;5.35;2.67;;;844.90;1024.00;;;;;;4971617;28;20105;-72
2023/07/08 11:58:49;;;;;;;9.80;3.13;;;820.10;972.80;;;;;;4974647;28;20105;-73
2023/07/08 12:01:52;;;;;;;7.50;3.13;;;845.10;1024.00;;;;;;4973707;28;20027;-73
2023/07/08 12:04:32;;;;;;;6.78;2.80;;;845.30;1075.20;;;;;;4962864;28;20034;-72
2023/07/08 12:07:18;;;;;;;6.88;2.67;;;845.30;1024.00;;;;;;4969350;28;20035;-75
2023/07/08 12:09:45;;;;;;;;;;;845.10;1024.00;;;;;;4989431;28;20046;-73
2023/07/08 12:12:29;;;;;;;6.18;2.55;;;845.20;1024.00;;;;;;4983048;28;20435;-77
2023/07/08 12:15:04;;;;;;;7.80;3.50;;;845.20;1024.00;;;;;;4986792;28;20066;-74
2023/07/08 12:17:30;;;;;;;;;;;845.10;1049.60;;;;;;4987076;28;20046;-73
2023/07/08 12:20:00;;;;;;;10.82;3.08;;;845.00;998.40;;;;;;4982653;28;19959;-72
2023/07/08 12:22:26;;;;;;;6.18;2.80;;;845.20;1024.00;;;;;;4984845;28;20027;-72
2023/07/08 12:24:51;;;;;;;7.43;2.80;;;845.00;1024.00;;;;;;4979172;28;20038;-72
2023/07/08 12:27:17;;;;;;;5.03;3.08;;;845.10;1024.00;;;;;;4984344;28;20038;-74
2023/07/08 12:29:42;;;;;;;7.13;2.88;;;845.20;1049.60;;;;;;4986913;28;20038;-77
2023/07/08 12:32:13;;;;;;;4.75;2.53;;;845.10;998.40;;;;;;4983001;28;20081;-75